King of Scandinavia — OVOL2 — position and weather

sailwx.info

Track history (hours):
 
Tides and Currents Weather Stations Pressure Air Temp Water Temp Dewpoint Dewpoint Depression Visibility Wind Speed Wind Dir Waves Ship Positions

King of Scandinavia

Ship's website: http://www.dfds.co.uk/DSW/EN/OnBoard/na/KING.htm

Last reported at 2015-Jul-31 18:34 UTC. Time now 2015-Jul-31 19:24 UTC.
Position N 54°37' W 000°20'.

Length 166 m; beam 27.6 m; draft 6.2 m.

Type: Passenger vessel. MMSI: 220449000.

Date/timePositionNaut miles runAvg speedWind from/ knotsBaromVisibWave heightAir tempDewpointWater temp
2015-Jul-31 18:34N 54°37' W 000°20'1918.6
2015-Jul-31 17:33N 54°47' W 000°47'1918.6
2015-Jul-31 16:33N 54°57' W 001°14'2 0.2
2015-Jul-31 07:17N 54°59' W 001°17'1216.7
2015-Jul-31 06:33N 54°52' W 000°59'1716.4
2015-Jul-31 05:31N 54°43' W 000°35'1616.6
2015-Jul-31 04:33N 54°34' W 000°12'1616.4
2015-Jul-31 03:33N 54°25' E 000°12'1716.5
2015-Jul-31 02:33N 54°17' E 000°36'15016.6
2015-Jul-30 17:33N 52°46' E 003°57'1414.2
2015-Jul-30 16:33N 52°37' E 004°15'1515.0
2015-Jul-30 15:33N 52°28' E 004°34'1 0.7
2015-Jul-30 14:31N 52°28' E 004°35'0 0.0
2015-Jul-30 13:31N 52°28' E 004°35'0 0.0
2015-Jul-30 12:28N 52°28' E 004°35'0 0.0
2015-Jul-30 11:31N 52°28' E 004°35'0 0.0
2015-Jul-30 10:31N 52°28' E 004°35'0 0.0
2015-Jul-30 09:28N 52°28' E 004°35'0 0.0
2015-Jul-30 08:31N 52°28' E 004°35'0 0.1
2015-Jul-30 07:34N 52°28' E 004°35'1111.4
2015-Jul-30 06:34N 52°34' E 004°20'1817.5
2015-Jul-30 05:33N 52°46' E 003°58'14617.3
2015-Jul-29 21:08N 54°13' E 000°42'1016.8
2015-Jul-29 20:33N 54°19' E 000°28'1716.9
2015-Jul-29 19:34N 54°28' E 000°04'1716.9
2015-Jul-29 18:34N 54°37' W 000°21'1717.2
2015-Jul-29 17:33N 54°46' W 000°46'1817.6
2015-Jul-29 16:33N 54°56' W 001°12'1 0.1
2015-Jul-29 07:05N 54°57' W 001°11'1019.0
2015-Jul-29 06:33N 54°51' W 000°57'1616.3
2015-Jul-29 05:33N 54°42' W 000°33'1514.9
2015-Jul-29 04:34N 54°34' W 000°12'1616.4
2015-Jul-29 03:34N 54°25' E 000°12'1616.3
2015-Jul-29 02:34N 54°16' E 000°36'12617.2
2015-Jul-28 19:14N 53°02' E 003°27'1216.4
2015-Jul-28 18:32N 52°54' E 003°41'1616.3
2015-Jul-28 17:33N 52°44' E 004°02'1615.7
2015-Jul-28 16:34N 52°34' E 004°21'1010.3
2015-Jul-28 15:33N 52°28' E 004°35'0 0.0
2015-Jul-28 14:33N 52°28' E 004°35'0 0.0
2015-Jul-28 13:33N 52°28' E 004°35'0 0.0
2015-Jul-28 12:33N 52°28' E 004°35'0 0.0
2015-Jul-28 11:33N 52°28' E 004°35'0 0.0
2015-Jul-28 10:33N 52°28' E 004°35'0 0.0
2015-Jul-28 09:33N 52°28' E 004°35'0 0.0
2015-Jul-28 08:33N 52°28' E 004°35'0 0.0
2015-Jul-28 07:34N 52°28' E 004°35'1312.7
2015-Jul-28 06:33N 52°35' E 004°18'1817.9
2015-Jul-28 05:33N 52°47' E 003°55'14518.0
2015-Jul-27 21:32N 54°14' E 000°41'1717.4
2015-Jul-27 20:33N 54°23' E 000°17'1717.2
2015-Jul-27 19:33N 54°32' W 000°08'1717.1
2015-Jul-27 18:33N 54°42' W 000°33'1817.3
2015-Jul-27 17:32N 54°51' W 000°59'9 0.9
2015-Jul-27 07:12N 54°57' W 001°11'1218.1
2015-Jul-27 06:33N 54°50' W 000°54'1918.4
2015-Jul-27 05:33N 54°40' W 000°27'1818.3
2015-Jul-27 04:33N 54°30' W 000°01'1817.9
2015-Jul-27 03:33N 54°20' E 000°24'15715.7
2015-Jul-26 17:33N 52°46' E 003°57'1515.3
2015-Jul-26 16:33N 52°37' E 004°16'1514.5
2015-Jul-26 15:33N 52°28' E 004°35'0 0.0
2015-Jul-26 14:33N 52°28' E 004°35'0 0.0
2015-Jul-26 13:33N 52°28' E 004°35'0 0.0
2015-Jul-26 12:33N 52°28' E 004°35'0 0.0
2015-Jul-26 11:33N 52°28' E 004°35'0 0.0
2015-Jul-26 10:33N 52°28' E 004°35'0 0.0
2015-Jul-26 09:33N 52°28' E 004°35'0 0.0
2015-Jul-26 08:33N 52°28' E 004°35'2 1.8
2015-Jul-26 07:33N 52°28' E 004°32'1616.1
2015-Jul-26 06:33N 52°38' E 004°12'1514.9
2015-Jul-26 05:33N 52°48' E 003°53'9417.5
2015-Jul-26 00:12N 53°47' E 001°51'1818.6
2015-Jul-25 23:15N 53°56' E 001°26'3319.3
2015-Jul-25 21:31N 54°15' E 000°38'1919.4
2015-Jul-25 20:33N 54°25' E 000°11'1919.2
2015-Jul-25 19:33N 54°36' W 000°16'2019.1
2015-Jul-25 18:29N 54°47' W 000°46'1819.2
2015-Jul-25 17:33N 54°56' W 001°12'7 1.7
2015-Jul-25 13:33N 55°00' W 001°22'4 3.8
2015-Jul-25 12:25N 54°56' W 001°20'0 0.1
2015-Jul-25 11:32N 54°56' W 001°20'5 1.3
2015-Jul-25 07:18N 54°57' W 001°11'1317.3
2015-Jul-25 06:33N 54°50' W 000°52'1717.4
2015-Jul-25 05:33N 54°40' W 000°27'1717.5
2015-Jul-25 04:33N 54°30' W 000°02'1817.7
2015-Jul-25 03:33N 54°21' E 000°24'15615.6
2015-Jul-24 17:33N 52°48' E 003°54'1615.6
2015-Jul-24 16:33N 52°38' E 004°13'1515.3
2015-Jul-24 15:33N 52°28' E 004°32'2 1.6
2015-Jul-24 14:32N 52°28' E 004°35'0 0.0
2015-Jul-24 13:32N 52°28' E 004°35'0 0.0
2015-Jul-24 12:32N 52°28' E 004°35'0 0.0
2015-Jul-24 11:32N 52°28' E 004°35'0 0.0
2015-Jul-24 10:29N 52°28' E 004°35'0 0.0
2015-Jul-24 09:32N 52°28' E 004°35'0 0.0
2015-Jul-24 08:32N 52°28' E 004°35'0 0.0
2015-Jul-24 07:33N 52°28' E 004°35'1010.4
2015-Jul-24 06:33N 52°33' E 004°21'1515.1
2015-Jul-24 05:33N 52°43' E 004°01'1515.3
2015-Jul-24 04:33N 52°53' E 003°43'1615.3
2015-Jul-24 03:32N 53°04' E 003°23'1716.6
2015-Jul-24 02:33N 53°14' E 003°02'1918.3
2015-Jul-24 01:30N 53°26' E 002°38'2218.8
2015-Jul-24 00:22N 53°40' E 002°09'5618.7
2015-Jul-23 21:21N 54°10' E 000°49'1518.8
2015-Jul-23 20:33N 54°18' E 000°28'1918.8
2015-Jul-23 19:33N 54°29' E 000°01'1918.7
2015-Jul-23 18:34N 54°39' W 000°26'1918.7
2015-Jul-23 17:33N 54°49' W 000°53'1918.6
2015-Jul-23 16:33N 54°60' W 001°20'6 0.6
2015-Jul-23 07:20N 54°57' W 001°12'1317.1
2015-Jul-23 06:33N 54°50' W 000°53'1615.7
2015-Jul-23 05:33N 54°41' W 000°30'1414.6
2015-Jul-23 04:33N 54°33' W 000°09'1818.2
2015-Jul-23 03:33N 54°23' E 000°18'1918.5
2015-Jul-23 02:31N 54°12' E 000°45'14316.0
2015-Jul-22 17:33N 52°46' E 003°58'1615.5
2015-Jul-22 16:33N 52°36' E 004°17'1413.8
2015-Jul-22 15:34N 52°28' E 004°35'0 0.0
2015-Jul-22 14:33N 52°28' E 004°35'0 0.0
2015-Jul-22 13:33N 52°28' E 004°35'0 0.0
2015-Jul-22 12:33N 52°28' E 004°35'0 0.0
2015-Jul-22 11:33N 52°28' E 004°35'0 0.0
2015-Jul-22 10:33N 52°28' E 004°35'0 0.0
2015-Jul-22 09:33N 52°28' E 004°35'0 0.0
2015-Jul-22 08:33N 52°28' E 004°35'0 0.0
2015-Jul-22 07:33N 52°28' E 004°35'1313.0
2015-Jul-22 06:34N 52°36' E 004°19'1514.7
2015-Jul-22 05:33N 52°45' E 003°59'1515.2
2015-Jul-22 04:33N 52°55' E 003°40'1515.2
2015-Jul-22 03:33N 53°05' E 003°21'11217.5
2015-Jul-21 21:10N 54°11' E 000°49'1118.9
2015-Jul-21 20:34N 54°17' E 000°32'1918.8
2015-Jul-21 19:33N 54°27' E 000°05'  
Track history (hours):
 
Tides and Currents Weather Stations Pressure Air Temp Water Temp Dewpoint Dewpoint Depression Visibility Wind Speed Wind Dir Waves Ship Positions

King of Scandinavia

Ship's website: http://www.dfds.co.uk/DSW/EN/OnBoard/na/KING.htm

Last reported at 2015-Jul-31 18:34 UTC. Time now 2015-Jul-31 19:24 UTC.
Position N 54°37' W 000°20'.

Length 166 m; beam 27.6 m; draft 6.2 m.

Type: Passenger vessel. MMSI: 220449000.

Date/timePositionNaut miles runAvg speedWind from/ knotsBaromVisibWave heightAir tempDewpointWater temp
2015-Jul-31 18:34N 54°37' W 000°20'1918.6
2015-Jul-31 17:33N 54°47' W 000°47'1918.6
2015-Jul-31 16:33N 54°57' W 001°14'2 0.2
2015-Jul-31 07:17N 54°59' W 001°17'1216.7
2015-Jul-31 06:33N 54°52' W 000°59'1716.4
2015-Jul-31 05:31N 54°43' W 000°35'1616.6
2015-Jul-31 04:33N 54°34' W 000°12'1616.4
2015-Jul-31 03:33N 54°25' E 000°12'1716.5
2015-Jul-31 02:33N 54°17' E 000°36'15016.6
2015-Jul-30 17:33N 52°46' E 003°57'1414.2
2015-Jul-30 16:33N 52°37' E 004°15'1515.0
2015-Jul-30 15:33N 52°28' E 004°34'1 0.7
2015-Jul-30 14:31N 52°28' E 004°35'0 0.0
2015-Jul-30 13:31N 52°28' E 004°35'0 0.0
2015-Jul-30 12:28N 52°28' E 004°35'0 0.0
2015-Jul-30 11:31N 52°28' E 004°35'0 0.0
2015-Jul-30 10:31N 52°28' E 004°35'0 0.0
2015-Jul-30 09:28N 52°28' E 004°35'0 0.0
2015-Jul-30 08:31N 52°28' E 004°35'0 0.1
2015-Jul-30 07:34N 52°28' E 004°35'1111.4
2015-Jul-30 06:34N 52°34' E 004°20'1817.5
2015-Jul-30 05:33N 52°46' E 003°58'14617.3
2015-Jul-29 21:08N 54°13' E 000°42'1016.8
2015-Jul-29 20:33N 54°19' E 000°28'1716.9
2015-Jul-29 19:34N 54°28' E 000°04'1716.9
2015-Jul-29 18:34N 54°37' W 000°21'1717.2
2015-Jul-29 17:33N 54°46' W 000°46'1817.6
2015-Jul-29 16:33N 54°56' W 001°12'1 0.1
2015-Jul-29 07:05N 54°57' W 001°11'1019.0
2015-Jul-29 06:33N 54°51' W 000°57'1616.3
2015-Jul-29 05:33N 54°42' W 000°33'1514.9
2015-Jul-29 04:34N 54°34' W 000°12'1616.4
2015-Jul-29 03:34N 54°25' E 000°12'1616.3
2015-Jul-29 02:34N 54°16' E 000°36'12617.2
2015-Jul-28 19:14N 53°02' E 003°27'1216.4
2015-Jul-28 18:32N 52°54' E 003°41'1616.3
2015-Jul-28 17:33N 52°44' E 004°02'1615.7
2015-Jul-28 16:34N 52°34' E 004°21'1010.3
2015-Jul-28 15:33N 52°28' E 004°35'0 0.0
2015-Jul-28 14:33N 52°28' E 004°35'0 0.0
2015-Jul-28 13:33N 52°28' E 004°35'0 0.0
2015-Jul-28 12:33N 52°28' E 004°35'0 0.0
2015-Jul-28 11:33N 52°28' E 004°35'0 0.0
2015-Jul-28 10:33N 52°28' E 004°35'0 0.0
2015-Jul-28 09:33N 52°28' E 004°35'0 0.0
2015-Jul-28 08:33N 52°28' E 004°35'0 0.0
2015-Jul-28 07:34N 52°28' E 004°35'1312.7
2015-Jul-28 06:33N 52°35' E 004°18'1817.9
2015-Jul-28 05:33N 52°47' E 003°55'14518.0
2015-Jul-27 21:32N 54°14' E 000°41'1717.4
2015-Jul-27 20:33N 54°23' E 000°17'1717.2
2015-Jul-27 19:33N 54°32' W 000°08'1717.1
2015-Jul-27 18:33N 54°42' W 000°33'1817.3
2015-Jul-27 17:32N 54°51' W 000°59'9 0.9
2015-Jul-27 07:12N 54°57' W 001°11'1218.1
2015-Jul-27 06:33N 54°50' W 000°54'1918.4
2015-Jul-27 05:33N 54°40' W 000°27'1818.3
2015-Jul-27 04:33N 54°30' W 000°01'1817.9
2015-Jul-27 03:33N 54°20' E 000°24'15715.7
2015-Jul-26 17:33N 52°46' E 003°57'1515.3
2015-Jul-26 16:33N 52°37' E 004°16'1514.5
2015-Jul-26 15:33N 52°28' E 004°35'0 0.0
2015-Jul-26 14:33N 52°28' E 004°35'0 0.0
2015-Jul-26 13:33N 52°28' E 004°35'0 0.0
2015-Jul-26 12:33N 52°28' E 004°35'0 0.0
2015-Jul-26 11:33N 52°28' E 004°35'0 0.0
2015-Jul-26 10:33N 52°28' E 004°35'0 0.0
2015-Jul-26 09:33N 52°28' E 004°35'0 0.0
2015-Jul-26 08:33N 52°28' E 004°35'2 1.8
2015-Jul-26 07:33N 52°28' E 004°32'1616.1
2015-Jul-26 06:33N 52°38' E 004°12'1514.9
2015-Jul-26 05:33N 52°48' E 003°53'9417.5
2015-Jul-26 00:12N 53°47' E 001°51'1818.6
2015-Jul-25 23:15N 53°56' E 001°26'3319.3
2015-Jul-25 21:31N 54°15' E 000°38'1919.4
2015-Jul-25 20:33N 54°25' E 000°11'1919.2
2015-Jul-25 19:33N 54°36' W 000°16'2019.1
2015-Jul-25 18:29N 54°47' W 000°46'1819.2
2015-Jul-25 17:33N 54°56' W 001°12'7 1.7
2015-Jul-25 13:33N 55°00' W 001°22'4 3.8
2015-Jul-25 12:25N 54°56' W 001°20'0 0.1
2015-Jul-25 11:32N 54°56' W 001°20'5 1.3
2015-Jul-25 07:18N 54°57' W 001°11'1317.3
2015-Jul-25 06:33N 54°50' W 000°52'1717.4
2015-Jul-25 05:33N 54°40' W 000°27'1717.5
2015-Jul-25 04:33N 54°30' W 000°02'1817.7
2015-Jul-25 03:33N 54°21' E 000°24'15615.6
2015-Jul-24 17:33N 52°48' E 003°54'1615.6
2015-Jul-24 16:33N 52°38' E 004°13'1515.3
2015-Jul-24 15:33N 52°28' E 004°32'2 1.6
2015-Jul-24 14:32N 52°28' E 004°35'0 0.0
2015-Jul-24 13:32N 52°28' E 004°35'0 0.0
2015-Jul-24 12:32N 52°28' E 004°35'0 0.0
2015-Jul-24 11:32N 52°28' E 004°35'0 0.0
2015-Jul-24 10:29N 52°28' E 004°35'0 0.0
2015-Jul-24 09:32N 52°28' E 004°35'0 0.0
2015-Jul-24 08:32N 52°28' E 004°35'0 0.0
2015-Jul-24 07:33N 52°28' E 004°35'1010.4
2015-Jul-24 06:33N 52°33' E 004°21'1515.1
2015-Jul-24 05:33N 52°43' E 004°01'1515.3
2015-Jul-24 04:33N 52°53' E 003°43'1615.3
2015-Jul-24 03:32N 53°04' E 003°23'1716.6
2015-Jul-24 02:33N 53°14' E 003°02'1918.3
2015-Jul-24 01:30N 53°26' E 002°38'2218.8
2015-Jul-24 00:22N 53°40' E 002°09'5618.7
2015-Jul-23 21:21N 54°10' E 000°49'1518.8
2015-Jul-23 20:33N 54°18' E 000°28'1918.8
2015-Jul-23 19:33N 54°29' E 000°01'1918.7
2015-Jul-23 18:34N 54°39' W 000°26'1918.7
2015-Jul-23 17:33N 54°49' W 000°53'1918.6
2015-Jul-23 16:33N 54°60' W 001°20'6 0.6
2015-Jul-23 07:20N 54°57' W 001°12'1317.1
2015-Jul-23 06:33N 54°50' W 000°53'1615.7
2015-Jul-23 05:33N 54°41' W 000°30'1414.6
2015-Jul-23 04:33N 54°33' W 000°09'1818.2
2015-Jul-23 03:33N 54°23' E 000°18'1918.5
2015-Jul-23 02:31N 54°12' E 000°45'14316.0
2015-Jul-22 17:33N 52°46' E 003°58'1615.5
2015-Jul-22 16:33N 52°36' E 004°17'1413.8
2015-Jul-22 15:34N 52°28' E 004°35'0 0.0
2015-Jul-22 14:33N 52°28' E 004°35'0 0.0
2015-Jul-22 13:33N 52°28' E 004°35'0 0.0
2015-Jul-22 12:33N 52°28' E 004°35'0 0.0
2015-Jul-22 11:33N 52°28' E 004°35'0 0.0
2015-Jul-22 10:33N 52°28' E 004°35'0 0.0
2015-Jul-22 09:33N 52°28' E 004°35'0 0.0
2015-Jul-22 08:33N 52°28' E 004°35'0 0.0
2015-Jul-22 07:33N 52°28' E 004°35'1313.0
2015-Jul-22 06:34N 52°36' E 004°19'1514.7
2015-Jul-22 05:33N 52°45' E 003°59'1515.2
2015-Jul-22 04:33N 52°55' E 003°40'1515.2
2015-Jul-22 03:33N 53°05' E 003°21'11217.5
2015-Jul-21 21:10N 54°11' E 000°49'1118.9
2015-Jul-21 20:34N 54°17' E 000°32'1918.8
2015-Jul-21 19:33N 54°27' E 000°05'  

Dump ship's entire track history